Time;durP1;ratioP1;P1;durP2;ratioP2;P2;SDS_P1;SDS_P2;PMS_P1;PMS_P2;Temp;Humidity;BMP_temperature;BMP_pressure;BME280_temperature;BME280_humidity;BME280_pressure;Samples;Min_cycle;Max_cycle;Signal;HPM_P1;HPM_P2
2024/03/01 00:01:41;;;;;;;35.42;16.30;;;7.00;99.90;;;;;;5061709;28;21438;-73
2024/03/01 00:04:07;;;;;;;36.38;15.45;;;7.00;99.90;;;;;;5060668;28;20496;-73
2024/03/01 00:06:32;;;;;;;40.15;17.40;;;7.00;99.90;;;;;;5061601;28;20055;-73
2024/03/01 00:08:58;;;;;;;39.63;17.55;;;7.00;99.90;;;;;;5061354;28;20451;-74
2024/03/01 00:11:24;;;;;;;40.45;17.05;;;7.00;99.90;;;;;;5061730;28;20025;-74
2024/03/01 00:13:49;;;;;;;37.20;16.77;;;6.90;99.90;;;;;;5061523;28;20147;-74
2024/03/01 00:16:15;;;;;;;40.25;16.95;;;6.90;99.90;;;;;;5060247;28;20021;-73
2024/03/01 00:18:41;;;;;;;37.40;16.85;;;6.90;99.90;;;;;;5061845;28;20501;-73
2024/03/01 00:21:07;;;;;;;41.78;17.05;;;6.90;99.90;;;;;;5061512;28;20638;-74
2024/03/01 00:23:34;;;;;;;41.55;17.23;;;6.90;99.90;;;;;;5061747;28;20027;-74
2024/03/01 00:25:59;;;;;;;37.20;16.38;;;6.90;99.90;;;;;;5063962;28;20085;-73
2024/03/01 00:28:25;;;;;;;39.83;18.08;;;6.90;99.90;;;;;;5064812;28;20025;-73
2024/03/01 00:30:50;;;;;;;39.08;16.80;;;6.90;99.90;;;;;;5063976;28;20139;-74
2024/03/01 00:33:16;;;;;;;41.70;17.98;;;6.90;99.90;;;;;;5065128;28;20145;-73
2024/03/01 00:35:42;;;;;;;39.47;17.63;;;6.90;99.90;;;;;;5063136;28;20033;-75
2024/03/01 00:38:07;;;;;;;39.25;17.40;;;6.80;99.90;;;;;;5063988;28;20033;-73
2024/03/01 00:40:33;;;;;;;39.83;18.17;;;6.90;99.90;;;;;;5064555;28;20112;-72
2024/03/01 00:42:58;;;;;;;40.65;18.23;;;6.80;99.90;;;;;;5063362;28;20786;-74
2024/03/01 00:45:24;;;;;;;41.47;18.23;;;6.80;99.90;;;;;;5064899;28;20025;-73
2024/03/01 00:47:50;;;;;;;49.47;19.30;;;6.80;99.90;;;;;;5064953;28;20044;-73
2024/03/01 00:50:19;;;;;;;42.20;17.75;;;6.80;99.90;;;;;;5063116;28;20021;-73
2024/03/01 00:52:45;;;;;;;40.28;17.88;;;6.70;99.90;;;;;;5063464;28;20021;-73
2024/03/01 00:55:10;;;;;;;38.83;18.15;;;6.70;99.90;;;;;;5061888;28;20035;-74
2024/03/01 00:57:36;;;;;;;41.25;17.98;;;6.70;99.90;;;;;;5063402;28;20032;-74
2024/03/01 01:00:03;;;;;;;40.67;16.30;;;6.70;99.90;;;;;;5064801;28;20032;-74
2024/03/01 01:02:28;;;;;;;51.60;19.20;;;6.60;99.90;;;;;;5062132;28;20033;-74
2024/03/01 01:04:54;;;;;;;43.85;19.00;;;6.60;99.90;;;;;;5062571;28;20112;-73
2024/03/01 01:07:19;;;;;;;41.25;17.67;;;6.50;99.90;;;;;;5064566;28;20024;-73
2024/03/01 01:09:46;;;;;;;42.08;18.65;;;6.50;99.90;;;;;;5062049;28;20041;-73
2024/03/01 01:12:11;;;;;;;37.13;17.25;;;6.40;99.90;;;;;;5062228;28;20059;-75
2024/03/01 01:14:37;;;;;;;44.20;18.50;;;6.40;99.90;;;;;;5063609;28;20029;-73
2024/03/01 01:17:02;;;;;;;40.55;18.30;;;6.40;99.90;;;;;;5063362;28;20047;-73
2024/03/01 01:19:28;;;;;;;42.75;18.20;;;6.40;99.90;;;;;;5061114;28;20123;-74
2024/03/01 01:21:54;;;;;;;43.30;19.60;;;6.30;99.90;;;;;;5062159;28;20054;-74
2024/03/01 01:24:20;;;;;;;42.30;17.90;;;6.30;99.90;;;;;;5062851;28;20025;-74
2024/03/01 01:26:46;;;;;;;44.92;18.55;;;6.20;99.90;;;;;;5061851;28;20029;-74
2024/03/01 01:29:11;;;;;;;44.10;18.73;;;6.20;99.90;;;;;;5062882;28;20050;-74
2024/03/01 01:31:37;;;;;;;49.28;18.50;;;6.20;99.90;;;;;;5063993;28;20256;-74
2024/03/01 01:34:03;;;;;;;47.65;19.65;;;6.20;99.90;;;;;;5064343;28;20033;-73
2024/03/01 01:36:29;;;;;;;42.22;18.63;;;6.20;99.90;;;;;;5063233;28;20080;-74
2024/03/01 01:38:55;;;;;;;45.70;19.13;;;6.00;99.90;;;;;;5063629;28;20028;-73
2024/03/01 01:41:20;;;;;;;49.40;20.00;;;6.10;99.90;;;;;;5063719;28;20116;-73
2024/03/01 01:43:46;;;;;;;45.95;19.73;;;6.00;99.90;;;;;;5064023;28;20021;-73
2024/03/01 01:46:15;;;;;;;45.53;19.38;;;6.10;99.90;;;;;;5063595;28;20025;-75
2024/03/01 01:48:43;;;;;;;46.00;18.63;;;6.00;99.90;;;;;;5063911;28;20013;-76
2024/03/01 01:51:10;;;;;;;43.88;18.63;;;6.00;99.90;;;;;;5063342;28;20013;-75
2024/03/01 01:53:36;;;;;;;43.08;18.40;;;5.90;99.90;;;;;;5063409;28;20036;-74
2024/03/01 01:56:02;;;;;;;48.30;20.65;;;5.90;99.90;;;;;;5063570;28;20718;-73
2024/03/01 01:58:31;;;;;;;45.53;19.33;;;5.90;99.90;;;;;;5062351;28;20049;-74
2024/03/01 02:00:57;;;;;;;48.30;20.70;;;5.90;99.90;;;;;;5061719;28;20063;-74
2024/03/01 02:03:23;;;;;;;48.90;20.50;;;5.80;99.90;;;;;;5063522;28;20088;-73
2024/03/01 02:05:48;;;;;;;49.35;19.40;;;5.80;99.90;;;;;;5062025;28;20085;-73
2024/03/01 02:08:14;;;;;;;49.85;19.58;;;5.80;99.90;;;;;;5061368;28;20384;-75
2024/03/01 02:10:40;;;;;;;44.55;20.17;;;5.60;99.90;;;;;;5060926;28;20032;-74
2024/03/01 02:13:16;;;;;;;48.97;20.50;;;5.70;99.90;;;;;;5061482;28;20029;-74
2024/03/01 02:15:42;;;;;;;47.30;20.83;;;5.70;99.90;;;;;;5061759;28;20032;-75
2024/03/01 02:18:07;;;;;;;53.00;21.17;;;5.60;99.90;;;;;;5063443;28;20469;-74
2024/03/01 02:20:33;;;;;;;53.70;20.40;;;5.50;99.90;;;;;;5061598;28;20494;-74
2024/03/01 02:23:01;;;;;;;49.90;21.77;;;5.50;99.90;;;;;;5063071;28;20043;-74
2024/03/01 02:25:27;;;;;;;52.92;21.88;;;5.40;99.90;;;;;;5061360;28;20028;-74
2024/03/01 02:27:52;;;;;;;54.22;21.08;;;5.40;99.90;;;;;;5061585;28;20048;-74
2024/03/01 02:30:18;;;;;;;53.90;21.40;;;5.40;99.90;;;;;;5061478;28;20051;-74
2024/03/01 02:32:44;;;;;;;50.03;19.95;;;5.50;99.90;;;;;;5063164;28;20025;-74
2024/03/01 02:35:09;;;;;;;52.22;20.80;;;5.40;99.90;;;;;;5061329;28;20476;-76
2024/03/01 02:37:35;;;;;;;49.72;20.92;;;5.50;99.90;;;;;;5061612;28;20033;-74
2024/03/01 02:40:01;;;;;;;49.70;21.48;;;5.30;99.90;;;;;;5062124;28;20071;-74
2024/03/01 02:42:27;;;;;;;53.17;22.08;;;5.30;99.90;;;;;;5062212;28;20051;-74
2024/03/01 02:44:52;;;;;;;51.78;21.73;;;5.20;99.90;;;;;;5060635;28;20021;-74
2024/03/01 02:47:18;;;;;;;51.38;22.23;;;5.30;99.90;;;;;;5062353;28;20117;-74
2024/03/01 02:49:44;;;;;;;57.75;22.70;;;5.40;99.90;;;;;;5062441;28;20135;-74
2024/03/01 02:52:10;;;;;;;52.47;22.27;;;5.20;99.90;;;;;;5061052;28;20040;-74
2024/03/01 02:54:38;;;;;;;51.28;21.80;;;5.30;99.90;;;;;;5062436;28;20047;-75
2024/03/01 02:57:03;;;;;;;53.53;23.25;;;5.30;99.90;;;;;;5062031;28;20048;-74
2024/03/01 02:59:30;;;;;;;55.53;22.38;;;5.30;99.90;;;;;;5062542;28;20017;-74
2024/03/01 03:01:55;;;;;;;52.45;21.98;;;5.30;99.90;;;;;;5062478;28;20143;-75
2024/03/01 03:04:22;;;;;;;55.05;22.83;;;5.30;99.90;;;;;;5062111;28;20029;-73
2024/03/01 03:06:47;;;;;;;54.80;22.83;;;5.30;99.90;;;;;;5062140;28;20025;-73
2024/03/01 03:09:13;;;;;;;56.40;22.15;;;5.40;99.90;;;;;;5060883;28;20052;-73
2024/03/01 03:11:38;;;;;;;55.50;22.75;;;5.20;99.90;;;;;;5062073;28;20084;-73
2024/03/01 03:14:04;;;;;;;55.22;21.67;;;5.10;99.90;;;;;;5062600;28;20052;-73
2024/03/01 03:16:30;;;;;;;52.28;23.08;;;5.10;99.90;;;;;;5062093;28;20098;-73
2024/03/01 03:18:56;;;;;;;52.45;22.73;;;5.10;99.90;;;;;;5060926;28;20041;-74
2024/03/01 03:21:21;;;;;;;57.95;22.23;;;5.20;99.90;;;;;;5062072;28;20045;-73
2024/03/01 03:23:47;;;;;;;56.55;22.52;;;5.20;99.90;;;;;;5060811;28;20048;-72
2024/03/01 03:26:12;;;;;;;58.10;22.67;;;5.20;99.90;;;;;;5061577;28;20029;-75
2024/03/01 03:28:38;;;;;;;56.42;21.60;;;5.10;99.90;;;;;;5062325;28;20100;-73
2024/03/01 03:31:04;;;;;;;57.35;22.10;;;5.10;99.90;;;;;;5062268;28;20047;-73
2024/03/01 03:33:30;;;;;;;56.65;23.23;;;5.10;99.90;;;;;;5062016;28;20063;-72
2024/03/01 03:35:56;;;;;;;54.72;22.90;;;5.30;99.90;;;;;;5060778;28;20025;-73
2024/03/01 03:38:21;;;;;;;58.42;23.77;;;5.20;99.90;;;;;;5061436;28;20029;-72
2024/03/01 03:40:47;;;;;;;53.10;21.90;;;5.10;99.90;;;;;;5061852;28;20032;-73
2024/03/01 03:43:13;;;;;;;57.72;22.60;;;5.10;99.90;;;;;;5062214;28;20032;-74
2024/03/01 03:45:39;;;;;;;57.33;23.23;;;5.10;99.90;;;;;;5062170;28;20056;-72
2024/03/01 03:48:05;;;;;;;55.97;23.10;;;5.00;99.90;;;;;;5060800;28;20028;-72
2024/03/01 03:50:30;;;;;;;61.25;24.05;;;5.00;99.90;;;;;;5062032;28;20502;-72
2024/03/01 03:52:56;;;;;;;52.92;22.45;;;5.00;99.90;;;;;;5060440;28;20055;-73
2024/03/01 03:55:21;;;;;;;58.20;22.38;;;4.90;99.90;;;;;;5060524;28;20024;-73
2024/03/01 03:57:47;;;;;;;59.15;21.80;;;4.80;99.90;;;;;;5060720;28;20032;-73
2024/03/01 04:00:15;;;;;;;57.95;23.02;;;5.00;99.90;;;;;;5063130;28;20088;-73
2024/03/01 04:02:43;;;;;;;59.83;22.98;;;4.90;99.90;;;;;;5064650;28;20041;-75
2024/03/01 04:05:09;;;;;;;58.75;22.83;;;4.90;99.90;;;;;;5065422;28;20466;-74
2024/03/01 04:07:34;;;;;;;63.80;24.27;;;4.90;99.90;;;;;;5065820;28;20029;-73
2024/03/01 04:10:00;;;;;;;58.08;23.38;;;4.90;99.90;;;;;;5064542;28;20789;-73
2024/03/01 04:12:25;;;;;;;61.25;24.38;;;4.90;99.90;;;;;;5065179;28;20033;-74
2024/03/01 04:14:51;;;;;;;58.88;22.40;;;4.80;99.90;;;;;;5065519;28;20139;-74
2024/03/01 04:17:16;;;;;;;59.08;22.08;;;4.90;99.90;;;;;;5064980;28;20028;-74
2024/03/01 04:19:42;;;;;;;55.30;22.15;;;4.80;99.90;;;;;;5063893;28;20024;-74
2024/03/01 04:22:09;;;;;;;54.75;21.90;;;4.70;99.90;;;;;;5064267;28;20085;-75
2024/03/01 04:24:35;;;;;;;58.97;23.25;;;4.80;99.90;;;;;;5064166;28;20029;-75
2024/03/01 04:27:00;;;;;;;57.88;23.13;;;4.90;99.90;;;;;;5065160;28;21372;-75
2024/03/01 04:29:27;;;;;;;57.92;21.17;;;4.80;99.90;;;;;;5065294;28;20078;-75
2024/03/01 04:31:53;;;;;;;56.25;21.63;;;4.80;99.90;;;;;;5063601;28;20032;-76
2024/03/01 04:34:19;;;;;;;65.35;25.02;;;4.80;99.90;;;;;;5063507;28;20013;-74
2024/03/01 04:36:45;;;;;;;61.50;25.17;;;4.90;99.90;;;;;;5065223;28;20047;-74
2024/03/01 04:39:14;;;;;;;58.70;23.75;;;4.80;99.90;;;;;;5065303;28;20036;-74
2024/03/01 04:41:40;;;;;;;67.40;24.65;;;4.90;99.90;;;;;;5064947;28;20029;-75
2024/03/01 04:44:06;;;;;;;67.70;26.17;;;4.80;99.90;;;;;;5061923;28;20036;-76
2024/03/01 04:46:31;;;;;;;57.70;24.05;;;4.90;99.90;;;;;;5064993;28;20060;-74
2024/03/01 04:48:57;;;;;;;58.08;22.50;;;4.90;99.90;;;;;;5064586;28;20021;-74
2024/03/01 04:51:24;;;;;;;58.85;23.63;;;5.00;99.90;;;;;;5063560;28;20021;-73
2024/03/01 04:53:50;;;;;;;62.58;24.75;;;4.80;99.90;;;;;;5063532;28;20622;-74
2024/03/01 04:56:17;;;;;;;60.85;23.40;;;4.80;99.90;;;;;;5063734;28;20054;-74
2024/03/01 04:58:43;;;;;;;66.55;25.00;;;4.80;99.90;;;;;;5064896;28;20021;-74
2024/03/01 05:01:10;;;;;;;60.78;24.38;;;4.80;99.90;;;;;;5061936;28;20029;-74
2024/03/01 05:03:36;;;;;;;61.90;23.35;;;4.80;99.90;;;;;;5063145;28;20541;-74
2024/03/01 05:06:03;;;;;;;61.97;25.48;;;4.80;99.90;;;;;;5064732;28;20028;-75
2024/03/01 05:08:30;;;;;;;64.75;25.27;;;4.80;99.90;;;;;;5061859;28;20061;-73
2024/03/01 05:10:56;;;;;;;57.28;22.98;;;4.80;99.90;;;;;;5063886;28;20017;-74
2024/03/01 05:13:22;;;;;;;62.97;26.83;;;4.90;99.90;;;;;;5061806;28;20037;-74
2024/03/01 05:15:49;;;;;;;70.38;26.35;;;4.90;99.90;;;;;;5060313;28;20018;-75
2024/03/01 05:18:14;;;;;;;59.92;24.15;;;4.90;99.90;;;;;;5062408;28;20087;-76
2024/03/01 05:20:41;;;;;;;66.03;25.88;;;5.00;99.90;;;;;;5060591;28;20462;-74
2024/03/01 05:23:07;;;;;;;65.15;25.83;;;5.00;99.90;;;;;;5062211;28;20029;-76
2024/03/01 05:25:33;;;;;;;63.63;25.40;;;5.00;99.90;;;;;;5063564;28;20052;-72
2024/03/01 05:27:59;;;;;;;65.50;26.17;;;5.00;99.90;;;;;;5063407;28;20032;-73
2024/03/01 05:30:24;;;;;;;64.63;26.13;;;5.00;99.90;;;;;;5059801;28;20040;-73
2024/03/01 05:32:54;;;;;;;65.90;26.83;;;5.10;99.90;;;;;;5058872;28;20037;-73
2024/03/01 05:35:21;;;;;;;65.57;26.50;;;5.10;99.90;;;;;;5061870;28;20473;-74
2024/03/01 05:37:47;;;;;;;65.05;24.65;;;5.00;99.90;;;;;;5063763;28;20033;-73
2024/03/01 05:40:14;;;;;;;59.53;23.40;;;5.10;99.90;;;;;;5062733;28;20103;-72
2024/03/01 05:42:44;;;;;;;66.60;27.15;;;5.10;99.90;;;;;;5062195;28;20068;-72
2024/03/01 05:45:11;;;;;;;64.35;26.98;;;5.10;99.90;;;;;;5061851;28;20048;-73
2024/03/01 05:47:42;;;;;;;66.78;25.88;;;5.10;99.90;;;;;;5063881;28;20021;-73
2024/03/01 05:50:11;;;;;;;65.18;25.73;;;5.10;99.90;;;;;;5061381;28;20106;-72
2024/03/01 05:52:38;;;;;;;64.88;26.33;;;5.10;99.90;;;;;;5062765;28;20024;-73
2024/03/01 05:55:04;;;;;;;61.58;26.15;;;5.20;99.90;;;;;;5062441;28;20025;-72
2024/03/01 05:57:31;;;;;;;68.15;28.23;;;5.20;99.90;;;;;;5061480;28;20017;-73
2024/03/01 05:59:57;;;;;;;63.90;27.02;;;5.10;99.90;;;;;;5063037;28;20070;-73
2024/03/01 06:02:23;;;;;;;63.20;25.20;;;5.10;99.90;;;;;;5054731;28;20068;-73
2024/03/01 06:04:48;;;;;;;71.85;26.95;;;5.20;99.90;;;;;;5061228;28;20029;-74
2024/03/01 06:07:18;;;;;;;67.32;27.13;;;5.10;99.90;;;;;;5060590;28;20036;-73
2024/03/01 06:09:44;;;;;;;69.57;28.27;;;5.20;99.90;;;;;;5058278;28;20048;-73
2024/03/01 06:12:09;;;;;;;66.13;27.10;;;5.10;99.90;;;;;;5058670;28;20041;-73
2024/03/01 06:14:35;;;;;;;62.58;26.35;;;5.20;99.90;;;;;;5060102;28;20059;-73
2024/03/01 06:17:02;;;;;;;70.55;28.65;;;5.30;99.90;;;;;;5061646;28;20028;-72
2024/03/01 06:19:27;;;;;;;69.45;27.00;;;5.20;99.90;;;;;;5062057;28;20033;-73
2024/03/01 06:21:55;;;;;;;65.55;26.60;;;5.40;99.90;;;;;;5058487;28;20116;-72
2024/03/01 06:24:21;;;;;;;68.63;27.02;;;5.30;99.90;;;;;;5060892;28;20028;-72
2024/03/01 06:26:47;;;;;;;66.45;27.27;;;5.40;99.90;;;;;;5060823;28;20045;-73
2024/03/01 06:29:13;;;;;;;64.47;27.02;;;5.30;99.90;;;;;;5062031;28;20040;-73
2024/03/01 06:31:39;;;;;;;62.50;26.08;;;5.40;99.90;;;;;;5061442;28;20025;-73
2024/03/01 06:34:04;;;;;;;63.80;26.05;;;5.40;99.90;;;;;;5062203;28;20027;-73
2024/03/01 06:36:30;;;;;;;63.70;25.42;;;5.50;99.90;;;;;;5058395;28;20079;-74
2024/03/01 06:38:55;;;;;;;70.35;28.23;;;5.40;99.90;;;;;;5061858;28;20039;-73
2024/03/01 06:41:21;;;;;;;71.53;28.33;;;5.40;99.90;;;;;;5059967;28;20291;-74
2024/03/01 06:43:47;;;;;;;67.97;27.05;;;5.50;99.90;;;;;;5060224;28;20048;-73
2024/03/01 06:46:13;;;;;;;75.45;27.00;;;5.40;99.90;;;;;;5059619;28;20028;-73
2024/03/01 06:48:39;;;;;;;68.30;25.80;;;5.50;99.90;;;;;;5062730;28;20048;-74
2024/03/01 06:51:04;;;;;;;62.65;23.98;;;5.50;99.90;;;;;;5062897;28;20021;-73
2024/03/01 06:53:31;;;;;;;63.60;26.25;;;5.50;99.90;;;;;;5062270;28;20059;-73
2024/03/01 06:55:57;;;;;;;62.63;26.20;;;5.60;99.90;;;;;;5058375;28;20020;-74
2024/03/01 06:58:22;;;;;;;67.93;26.60;;;5.60;99.90;;;;;;5058273;28;20121;-73
2024/03/01 07:00:48;;;;;;;64.75;25.55;;;5.40;99.90;;;;;;5061161;28;20033;-73
2024/03/01 07:03:14;;;;;;;63.70;25.83;;;5.50;99.90;;;;;;5062199;28;20017;-74
2024/03/01 07:05:40;;;;;;;65.88;27.20;;;5.60;99.90;;;;;;5061039;28;20028;-73
2024/03/01 07:08:06;;;;;;;65.43;25.15;;;5.50;99.90;;;;;;5060985;28;20021;-74
2024/03/01 07:10:32;;;;;;;59.17;24.73;;;5.60;99.90;;;;;;5062138;28;20623;-73
2024/03/01 07:12:58;;;;;;;69.60;28.25;;;5.70;99.90;;;;;;5062265;28;20025;-73
2024/03/01 07:15:24;;;;;;;63.65;25.08;;;5.60;99.90;;;;;;5058882;28;20044;-74
2024/03/01 07:17:52;;;;;;;67.97;27.42;;;5.70;99.90;;;;;;5062105;28;20076;-74
2024/03/01 07:20:18;;;;;;;64.18;25.00;;;5.70;99.90;;;;;;5060236;28;20086;-75
2024/03/01 07:22:43;;;;;;;61.25;25.83;;;5.70;99.90;;;;;;5058198;28;20037;-72
2024/03/01 07:25:09;;;;;;;63.75;26.80;;;5.90;99.90;;;;;;5061700;28;20021;-74
2024/03/01 07:27:35;;;;;;;62.17;26.85;;;5.80;99.90;;;;;;5060574;28;20021;-74
2024/03/01 07:30:05;;;;;;;62.85;26.08;;;5.90;99.90;;;;;;5062151;28;20082;-74
2024/03/01 07:32:33;;;;;;;66.72;25.55;;;5.90;99.90;;;;;;5058799;28;20079;-74
2024/03/01 07:34:58;;;;;;;62.63;26.02;;;5.90;99.90;;;;;;5063939;28;20017;-74
2024/03/01 07:37:24;;;;;;;66.78;27.50;;;6.00;99.90;;;;;;5053118;28;20043;-74
2024/03/01 07:39:51;;;;;;;62.38;26.33;;;6.00;99.90;;;;;;5053589;28;20064;-73
2024/03/01 07:42:17;;;;;;;62.78;25.95;;;5.90;99.90;;;;;;5045835;28;20052;-75
2024/03/01 07:44:42;;;;;;;67.63;27.95;;;6.00;99.90;;;;;;5060377;28;20701;-73
2024/03/01 07:47:08;;;;;;;61.33;26.20;;;6.00;99.90;;;;;;5064869;28;20021;-74
2024/03/01 07:49:34;;;;;;;67.72;26.13;;;6.10;99.90;;;;;;5056467;28;20106;-75
2024/03/01 07:52:00;;;;;;;72.35;26.88;;;6.10;99.90;;;;;;5049856;28;20041;-73
2024/03/01 07:54:27;;;;;;;65.22;27.02;;;6.20;99.90;;;;;;5059404;28;20466;-74
2024/03/01 07:56:53;;;;;;;66.32;26.33;;;6.20;99.90;;;;;;5058722;28;20065;-75
2024/03/01 07:59:19;;;;;;;64.70;26.35;;;6.30;99.90;;;;;;5059372;28;20036;-74
2024/03/01 08:01:45;;;;;;;62.05;27.25;;;6.40;99.90;;;;;;5060076;28;20105;-74
2024/03/01 08:04:11;;;;;;;60.42;26.77;;;6.40;99.90;;;;;;5061258;28;20051;-74
2024/03/01 08:06:38;;;;;;;67.07;27.60;;;6.40;99.90;;;;;;5060783;28;20037;-73
2024/03/01 08:09:05;;;;;;;65.32;25.55;;;6.50;99.90;;;;;;5062299;28;20051;-73
2024/03/01 08:11:40;;;;;;;66.53;27.13;;;6.60;99.90;;;;;;5062331;28;20025;-74
2024/03/01 08:14:09;;;;;;;65.15;26.88;;;6.70;99.90;;;;;;5062581;28;20088;-73
2024/03/01 08:16:36;;;;;;;66.93;27.65;;;6.70;99.90;;;;;;5062183;28;20013;-73
2024/03/01 08:19:01;;;;;;;65.60;26.75;;;6.70;99.90;;;;;;5060415;28;20055;-72
2024/03/01 08:21:27;;;;;;;60.55;25.75;;;6.70;99.90;;;;;;5061647;28;20521;-73
2024/03/01 08:23:52;;;;;;;63.67;26.55;;;6.80;99.90;;;;;;5062077;28;20026;-73
2024/03/01 08:26:23;;;;;;;64.55;28.08;;;6.80;99.90;;;;;;5061224;28;20048;-73
2024/03/01 08:28:49;;;;;;;62.63;26.58;;;6.90;99.90;;;;;;5062093;28;20401;-73
2024/03/01 08:31:35;;;;;;;64.18;27.90;;;7.00;99.90;;;;;;5061694;28;20033;-74
2024/03/01 08:34:25;;;;;;;60.42;25.98;;;7.00;99.90;;;;;;5061880;28;20028;-74
2024/03/01 08:36:52;;;;;;;68.00;25.95;;;7.00;99.90;;;;;;5060943;28;20021;-73
2024/03/01 08:39:25;;;;;;;64.78;25.80;;;7.00;99.90;;;;;;5060944;28;20033;-74
2024/03/01 08:41:55;;;;;;;57.28;23.70;;;7.10;99.90;;;;;;5059261;28;20037;-72
2024/03/01 08:44:42;;;;;;;59.38;26.45;;;7.10;99.90;;;;;;5064276;28;20059;-73
2024/03/01 08:47:16;;;;;;;56.85;25.05;;;7.10;99.90;;;;;;5062166;28;20025;-74
2024/03/01 08:49:59;;;;;;;63.30;25.38;;;7.20;99.90;;;;;;5062598;28;20027;-73
2024/03/01 08:52:35;;;;;;;65.30;25.95;;;7.10;99.90;;;;;;5064145;28;20032;-72
2024/03/01 08:55:09;;;;;;;63.22;26.73;;;7.20;99.90;;;;;;5062378;28;20021;-73
2024/03/01 08:57:37;;;;;;;67.70;27.63;;;7.20;99.90;;;;;;5062133;28;20031;-74
2024/03/01 09:00:25;;;;;;;63.10;26.23;;;7.20;99.90;;;;;;5062842;28;20033;-73
2024/03/01 09:02:52;;;;;;;62.00;26.58;;;7.30;99.90;;;;;;5063912;28;20116;-73
2024/03/01 09:05:18;;;;;;;59.13;26.40;;;7.30;99.90;;;;;;5064270;28;20021;-73
2024/03/01 09:07:44;;;;;;;61.28;25.70;;;7.40;99.90;;;;;;5059365;28;20028;-73
2024/03/01 09:10:18;;;;;;;64.13;27.40;;;7.50;99.90;;;;;;5063740;28;20471;-73
2024/03/01 09:12:47;;;;;;;57.80;25.02;;;7.60;99.90;;;;;;5060112;28;20028;-73
2024/03/01 09:15:15;;;;;;;60.20;26.83;;;7.70;99.90;;;;;;5061611;28;20035;-75
2024/03/01 09:17:41;;;;;;;56.13;24.40;;;7.80;99.90;;;;;;5064125;28;20120;-73
2024/03/01 09:20:32;;;;;;;57.75;24.20;;;8.00;99.90;;;;;;5062568;28;20029;-75
2024/03/01 09:22:58;;;;;;;57.63;24.77;;;8.20;99.90;;;;;;5061549;28;20044;-73
2024/03/01 09:25:43;;;;;;;56.88;25.35;;;8.60;99.90;;;;;;5055775;28;20029;-75
2024/03/01 09:28:09;;;;;;;56.60;25.52;;;9.00;99.90;;;;;;5059402;28;20021;-73
2024/03/01 09:30:35;;;;;;;54.83;26.08;;;9.40;99.90;;;;;;5054867;28;20037;-73
2024/03/01 09:33:02;;;;;;;53.22;24.88;;;9.80;99.90;;;;;;5063175;28;20025;-73
2024/03/01 09:35:29;;;;;;;52.47;24.65;;;10.10;99.90;;;;;;5061371;28;20033;-74
2024/03/01 09:37:56;;;;;;;53.70;23.48;;;10.30;99.90;;;;;;5063740;28;20028;-73
2024/03/01 09:40:33;;;;;;;51.83;24.75;;;10.40;99.90;;;;;;5063551;28;20033;-75
2024/03/01 09:43:14;;;;;;;46.60;22.70;;;10.50;99.90;;;;;;5061352;28;20442;-75
2024/03/01 09:45:47;;;;;;;49.22;22.80;;;10.50;99.90;;;;;;5062722;28;20089;-73
2024/03/01 09:48:34;;;;;;;46.23;23.63;;;10.30;99.90;;;;;;5062872;28;20094;-75
2024/03/01 09:51:32;;;;;;;48.58;23.88;;;10.30;99.90;;;;;;5063204;28;20382;-74
2024/03/01 09:54:24;;;;;;;49.45;22.52;;;10.40;99.90;;;;;;5063870;28;20089;-73
2024/03/01 09:57:11;;;;;;;46.08;22.30;;;10.80;99.90;;;;;;5058729;28;20033;-72
2024/03/01 09:59:58;;;;;;;50.40;23.35;;;11.00;99.90;;;;;;5062944;28;20021;-73
2024/03/01 10:02:32;;;;;;;44.88;21.98;;;11.00;99.90;;;;;;5061206;28;20105;-73
2024/03/01 10:05:14;;;;;;;45.45;20.80;;;10.90;99.90;;;;;;5059871;28;20040;-71
2024/03/01 10:07:47;;;;;;;50.97;22.63;;;10.80;99.90;;;;;;5058439;28;20174;-72
2024/03/01 10:10:59;;;;;;;47.33;22.48;;;10.80;99.90;;;;;;5062061;28;20077;-71
2024/03/01 10:14:00;;;;;;;45.30;22.23;;;10.90;99.90;;;;;;5061134;28;20028;-72
2024/03/01 10:16:50;;;;;;;44.78;21.23;;;11.00;99.90;;;;;;5049109;28;20087;-72
2024/03/01 10:19:35;;;;;;;46.97;22.05;;;11.00;99.90;;;;;;5050172;28;20049;-71
2024/03/01 10:22:21;;;;;;;45.42;21.67;;;11.10;99.90;;;;;;5056237;28;20041;-72
2024/03/01 10:25:18;;;;;;;47.65;24.60;;;11.10;99.90;;;;;;5054538;28;20087;-73
2024/03/01 10:27:51;;;;;;;46.80;23.58;;;11.00;99.90;;;;;;5061053;28;20469;-73
2024/03/01 10:30:29;;;;;;;46.78;21.73;;;11.00;99.90;;;;;;5061154;28;20029;-74
2024/03/01 10:33:31;;;;;;;48.35;23.60;;;10.90;99.90;;;;;;5059795;28;20092;-72
2024/03/01 10:36:19;;;;;;;42.67;21.63;;;10.80;99.90;;;;;;5060456;28;20060;-74
2024/03/01 10:39:07;;;;;;;48.55;20.88;;;10.80;99.90;;;;;;5060089;28;20033;-71
2024/03/01 10:42:02;;;;;;;43.80;21.05;;;10.60;99.90;;;;;;5054025;28;20041;-73
2024/03/01 10:44:40;;;;;;;50.00;22.50;;;10.50;99.90;;;;;;5061338;28;20035;-74
2024/03/01 10:47:23;;;;;;;44.63;21.58;;;10.40;99.90;;;;;;5059615;28;20059;-73
2024/03/01 10:50:13;;;;;;;45.88;20.92;;;10.30;99.90;;;;;;5061974;28;20054;-72
2024/03/01 10:53:05;;;;;;;48.13;22.17;;;10.20;99.90;;;;;;5061776;28;21172;-73
2024/03/01 10:55:39;;;;;;;42.22;20.30;;;10.20;99.90;;;;;;5057273;28;20410;-71
2024/03/01 10:58:32;;;;;;;43.30;21.95;;;10.20;99.90;;;;;;5060435;28;20024;-72
2024/03/01 11:01:22;;;;;;;44.17;19.33;;;10.20;99.90;;;;;;5059995;28;20044;-75
2024/03/01 11:03:54;;;;;;;48.08;22.52;;;10.20;99.90;;;;;;5060678;28;20121;-73
2024/03/01 11:06:54;;;;;;;47.80;22.30;;;10.30;99.90;;;;;;5060289;28;20713;-71
2024/03/01 11:09:50;;;;;;;44.40;21.05;;;10.40;99.90;;;;;;5059871;28;20055;-72
2024/03/01 11:12:26;;;;;;;44.38;21.33;;;10.50;99.90;;;;;;5052582;28;20120;-74
2024/03/01 11:14:58;;;;;;;42.58;20.42;;;10.60;99.90;;;;;;5061425;28;20021;-74
2024/03/01 11:17:27;;;;;;;37.13;20.50;;;10.60;99.90;;;;;;5060280;28;20025;-75
2024/03/01 11:19:59;;;;;;;35.47;18.75;;;10.60;99.90;;;;;;5061273;28;20032;-70
2024/03/01 11:22:27;;;;;;;40.28;21.88;;;10.60;99.90;;;;;;5060892;28;20101;-74
2024/03/01 11:25:07;;;;;;;37.92;19.50;;;10.50;99.90;;;;;;5059711;28;20031;-73
2024/03/01 11:27:36;;;;;;;38.47;19.17;;;10.40;99.90;;;;;;5059609;28;20029;-71
2024/03/01 11:30:06;;;;;;;36.08;18.88;;;10.40;99.90;;;;;;5061146;28;20025;-72
2024/03/01 11:32:39;;;;;;;37.40;18.55;;;10.30;99.90;;;;;;5059950;28;20029;-74
2024/03/01 11:35:12;;;;;;;39.17;20.67;;;10.30;99.90;;;;;;5057520;28;20086;-72
2024/03/01 11:38:15;;;;;;;41.25;21.73;;;10.20;99.90;;;;;;5058872;28;20021;-72
2024/03/01 11:41:05;;;;;;;38.03;18.83;;;10.20;99.90;;;;;;5059093;28;20021;-73
2024/03/01 11:44:02;;;;;;;41.67;20.73;;;10.20;99.90;;;;;;5051825;28;20063;-73
2024/03/01 11:46:49;;;;;;;44.28;23.52;;;10.20;99.90;;;;;;5058123;28;20047;-73
2024/03/01 11:49:24;;;;;;;39.08;20.25;;;10.10;99.90;;;;;;5058635;28;20393;-73
2024/03/01 11:52:27;;;;;;;45.97;22.27;;;10.10;99.90;;;;;;5058738;28;20927;-73
2024/03/01 11:55:30;;;;;;;48.70;22.90;;;10.10;99.90;;;;;;5060251;28;20018;-74
2024/03/01 11:58:23;;;;;;;52.10;23.58;;;10.10;99.90;;;;;;5060175;28;20033;-72
2024/03/01 12:01:07;;;;;;;42.97;22.13;;;10.20;99.90;;;;;;5058708;28;20100;-73
2024/03/01 12:04:24;;;;;;;42.42;21.48;;;10.10;99.90;;;;;;5059575;28;20037;-71
2024/03/01 12:06:50;;;;;;;44.13;23.40;;;10.10;99.90;;;;;;5051131;28;20545;-72
2024/03/01 12:09:30;;;;;;;40.30;21.15;;;10.00;99.90;;;;;;5058454;28;20076;-72
2024/03/01 12:12:15;;;;;;;46.63;23.73;;;10.00;99.90;;;;;;5057797;28;20033;-73
2024/03/01 12:14:47;;;;;;;44.10;22.73;;;10.10;99.90;;;;;;5060023;28;20036;-72
2024/03/01 12:18:06;;;;;;;56.95;27.63;;;10.10;99.90;;;;;;5059903;28;20032;-73
2024/03/01 12:20:37;;;;;;;40.03;20.90;;;10.10;99.90;;;;;;5013471;28;20065;-72
2024/03/01 12:23:47;;;;;;;34.97;19.30;;;10.30;99.90;;;;;;5061420;28;20401;-72
2024/03/01 12:26:16;;;;;;;38.38;21.27;;;10.80;99.90;;;;;;5031282;28;20037;-74
2024/03/01 12:29:14;;;;;;;36.33;21.75;;;11.90;99.90;;;;;;5059596;28;20064;-73
2024/03/01 12:32:07;;;;;;;37.40;21.92;;;13.10;99.90;;;;;;5062932;28;20115;-72
2024/03/01 12:35:00;;;;;;;39.10;23.17;;;14.10;99.90;;;;;;5064560;28;20044;-72
2024/03/01 12:37:46;;;;;;;43.38;22.13;;;15.00;99.90;;;;;;5063211;28;20048;-75
2024/03/01 12:40:17;;;;;;;30.10;18.13;;;15.20;99.90;;;;;;5057888;28;20025;-71
2024/03/01 12:43:07;;;;;;;32.80;18.92;;;14.70;99.90;;;;;;5061342;28;20060;-73
2024/03/01 12:46:10;;;;;;;37.08;20.17;;;14.30;99.90;;;;;;5062387;28;20029;-73
2024/03/01 12:48:54;;;;;;;30.77;17.67;;;13.90;99.90;;;;;;5055507;28;20405;-73
2024/03/01 12:51:28;;;;;;;29.25;18.17;;;13.50;99.90;;;;;;5063508;28;20081;-73
2024/03/01 12:54:07;;;;;;;25.30;15.07;;;13.10;99.90;;;;;;5062775;28;20489;-71
2024/03/01 12:56:57;;;;;;;25.77;15.98;;;12.80;99.90;;;;;;5063262;28;20036;-75